sensor_id;sensor_type;location;lat;lon;timestamp;P1;durP1;ratioP1;P2;durP2;ratioP2
8650;SDS011;4363;52.346;14.516;2023-09-19T00:00:23;458.83;;;229.93;;
8650;SDS011;4363;52.346;14.516;2023-09-19T00:02:56;449.03;;;219.17;;
8650;SDS011;4363;52.346;14.516;2023-09-19T00:05:25;450.37;;;218.70;;
8650;SDS011;4363;52.346;14.516;2023-09-19T00:07:53;447.43;;;219.50;;
8650;SDS011;4363;52.346;14.516;2023-09-19T00:10:20;455.10;;;224.40;;
8650;SDS011;4363;52.346;14.516;2023-09-19T00:12:46;428.03;;;205.20;;
8650;SDS011;4363;52.346;14.516;2023-09-19T00:15:12;468.53;;;226.87;;
8650;SDS011;4363;52.346;14.516;2023-09-19T00:17:42;455.73;;;222.60;;
8650;SDS011;4363;52.346;14.516;2023-09-19T00:20:08;472.87;;;230.97;;
8650;SDS011;4363;52.346;14.516;2023-09-19T00:22:41;454.13;;;220.37;;
8650;SDS011;4363;52.346;14.516;2023-09-19T00:25:07;453.27;;;223.93;;
8650;SDS011;4363;52.346;14.516;2023-09-19T00:27:35;442.53;;;218.43;;
8650;SDS011;4363;52.346;14.516;2023-09-19T00:30:03;472.77;;;229.87;;
8650;SDS011;4363;52.346;14.516;2023-09-19T00:32:29;446.73;;;215.93;;
8650;SDS011;4363;52.346;14.516;2023-09-19T00:34:55;488.90;;;242.60;;
8650;SDS011;4363;52.346;14.516;2023-09-19T00:37:21;449.53;;;216.83;;
8650;SDS011;4363;52.346;14.516;2023-09-19T00:39:47;450.33;;;216.00;;
8650;SDS011;4363;52.346;14.516;2023-09-19T00:42:19;453.80;;;219.57;;
8650;SDS011;4363;52.346;14.516;2023-09-19T00:44:45;444.73;;;210.73;;
8650;SDS011;4363;52.346;14.516;2023-09-19T00:47:11;470.43;;;226.80;;
8650;SDS011;4363;52.346;14.516;2023-09-19T00:49:42;437.03;;;213.80;;
8650;SDS011;4363;52.346;14.516;2023-09-19T00:52:08;458.37;;;218.20;;
8650;SDS011;4363;52.346;14.516;2023-09-19T00:54:35;454.80;;;219.93;;
8650;SDS011;4363;52.346;14.516;2023-09-19T00:57:01;445.83;;;216.97;;
8650;SDS011;4363;52.346;14.516;2023-09-19T00:59:28;461.17;;;217.93;;
8650;SDS011;4363;52.346;14.516;2023-09-19T01:01:55;442.60;;;215.03;;
8650;SDS011;4363;52.346;14.516;2023-09-19T01:04:22;447.77;;;212.00;;
8650;SDS011;4363;52.346;14.516;2023-09-19T01:06:49;444.93;;;210.70;;
8650;SDS011;4363;52.346;14.516;2023-09-19T01:09:18;469.10;;;227.40;;
8650;SDS011;4363;52.346;14.516;2023-09-19T01:11:45;462.37;;;222.17;;
8650;SDS011;4363;52.346;14.516;2023-09-19T01:16:42;457.23;;;220.07;;
8650;SDS011;4363;52.346;14.516;2023-09-19T01:22:16;454.27;;;217.73;;
8650;SDS011;4363;52.346;14.516;2023-09-19T01:30:06;441.40;;;209.20;;
8650;SDS011;4363;52.346;14.516;2023-09-19T01:32:33;460.80;;;219.77;;
8650;SDS011;4363;52.346;14.516;2023-09-19T01:34:59;470.47;;;226.90;;
8650;SDS011;4363;52.346;14.516;2023-09-19T01:37:29;460.23;;;220.37;;
8650;SDS011;4363;52.346;14.516;2023-09-19T01:39:57;451.93;;;216.13;;
8650;SDS011;4363;52.346;14.516;2023-09-19T01:45:44;456.33;;;216.00;;
8650;SDS011;4363;52.346;14.516;2023-09-19T01:51:00;445.73;;;212.30;;
8650;SDS011;4363;52.346;14.516;2023-09-19T01:53:41;451.57;;;214.73;;
8650;SDS011;4363;52.346;14.516;2023-09-19T01:56:08;470.93;;;222.60;;
8650;SDS011;4363;52.346;14.516;2023-09-19T01:58:48;449.03;;;212.13;;
8650;SDS011;4363;52.346;14.516;2023-09-19T02:01:18;462.10;;;224.10;;
8650;SDS011;4363;52.346;14.516;2023-09-19T02:03:46;467.10;;;222.30;;
8650;SDS011;4363;52.346;14.516;2023-09-19T02:06:13;462.33;;;219.77;;
8650;SDS011;4363;52.346;14.516;2023-09-19T02:08:40;460.97;;;217.27;;
8650;SDS011;4363;52.346;14.516;2023-09-19T02:11:06;492.77;;;239.97;;
8650;SDS011;4363;52.346;14.516;2023-09-19T02:13:32;456.53;;;216.87;;
8650;SDS011;4363;52.346;14.516;2023-09-19T02:15:59;444.80;;;209.80;;
8650;SDS011;4363;52.346;14.516;2023-09-19T02:18:25;463.17;;;222.47;;
8650;SDS011;4363;52.346;14.516;2023-09-19T02:20:53;453.03;;;212.10;;
8650;SDS011;4363;52.346;14.516;2023-09-19T02:23:19;458.80;;;219.67;;
8650;SDS011;4363;52.346;14.516;2023-09-19T02:25:52;507.97;;;240.73;;
8650;SDS011;4363;52.346;14.516;2023-09-19T02:28:18;468.10;;;225.60;;
8650;SDS011;4363;52.346;14.516;2023-09-19T02:30:47;465.87;;;221.03;;
8650;SDS011;4363;52.346;14.516;2023-09-19T02:33:13;456.07;;;216.10;;
8650;SDS011;4363;52.346;14.516;2023-09-19T02:35:39;459.50;;;217.57;;
8650;SDS011;4363;52.346;14.516;2023-09-19T02:38:05;441.20;;;210.93;;
8650;SDS011;4363;52.346;14.516;2023-09-19T02:40:36;472.07;;;225.90;;
8650;SDS011;4363;52.346;14.516;2023-09-19T02:43:02;435.13;;;204.97;;
8650;SDS011;4363;52.346;14.516;2023-09-19T02:45:28;455.47;;;216.07;;
8650;SDS011;4363;52.346;14.516;2023-09-19T02:47:55;434.67;;;208.70;;
8650;SDS011;4363;52.346;14.516;2023-09-19T02:50:22;509.80;;;250.80;;
8650;SDS011;4363;52.346;14.516;2023-09-19T02:52:48;426.27;;;199.13;;
8650;SDS011;4363;52.346;14.516;2023-09-19T02:55:14;459.17;;;219.73;;
8650;SDS011;4363;52.346;14.516;2023-09-19T02:57:44;440.70;;;206.67;;
8650;SDS011;4363;52.346;14.516;2023-09-19T03:00:11;463.80;;;226.40;;
8650;SDS011;4363;52.346;14.516;2023-09-19T03:02:37;450.40;;;216.50;;
8650;SDS011;4363;52.346;14.516;2023-09-19T03:05:05;436.13;;;203.37;;
8650;SDS011;4363;52.346;14.516;2023-09-19T03:07:31;454.43;;;210.30;;
8650;SDS011;4363;52.346;14.516;2023-09-19T03:09:57;418.30;;;198.13;;
8650;SDS011;4363;52.346;14.516;2023-09-19T03:12:23;469.63;;;223.63;;
8650;SDS011;4363;52.346;14.516;2023-09-19T03:14:49;443.93;;;206.40;;
8650;SDS011;4363;52.346;14.516;2023-09-19T03:17:15;464.07;;;217.00;;
8650;SDS011;4363;52.346;14.516;2023-09-19T03:19:41;448.83;;;215.50;;
8650;SDS011;4363;52.346;14.516;2023-09-19T03:22:07;451.53;;;211.73;;
8650;SDS011;4363;52.346;14.516;2023-09-19T03:24:33;464.13;;;216.33;;
8650;SDS011;4363;52.346;14.516;2023-09-19T03:27:01;450.00;;;209.00;;
8650;SDS011;4363;52.346;14.516;2023-09-19T03:29:28;428.90;;;197.00;;
8650;SDS011;4363;52.346;14.516;2023-09-19T03:31:53;438.20;;;204.03;;
8650;SDS011;4363;52.346;14.516;2023-09-19T03:34:19;450.80;;;218.20;;
8650;SDS011;4363;52.346;14.516;2023-09-19T03:36:46;444.27;;;207.90;;
8650;SDS011;4363;52.346;14.516;2023-09-19T03:39:11;456.20;;;219.00;;
8650;SDS011;4363;52.346;14.516;2023-09-19T03:41:40;455.43;;;216.00;;
8650;SDS011;4363;52.346;14.516;2023-09-19T03:44:06;425.40;;;199.57;;
8650;SDS011;4363;52.346;14.516;2023-09-19T03:46:32;427.20;;;200.97;;
8650;SDS011;4363;52.346;14.516;2023-09-19T03:48:58;450.77;;;217.93;;
8650;SDS011;4363;52.346;14.516;2023-09-19T03:51:23;450.33;;;214.10;;
8650;SDS011;4363;52.346;14.516;2023-09-19T03:53:49;431.10;;;202.53;;
8650;SDS011;4363;52.346;14.516;2023-09-19T03:56:16;439.00;;;208.33;;
8650;SDS011;4363;52.346;14.516;2023-09-19T03:58:42;436.47;;;203.57;;
8650;SDS011;4363;52.346;14.516;2023-09-19T04:01:07;433.50;;;198.20;;
8650;SDS011;4363;52.346;14.516;2023-09-19T04:03:34;445.80;;;203.47;;
8650;SDS011;4363;52.346;14.516;2023-09-19T04:06:10;457.57;;;214.67;;
8650;SDS011;4363;52.346;14.516;2023-09-19T04:08:36;447.40;;;208.00;;
8650;SDS011;4363;52.346;14.516;2023-09-19T04:11:03;436.80;;;202.27;;
8650;SDS011;4363;52.346;14.516;2023-09-19T04:13:29;455.67;;;211.63;;
8650;SDS011;4363;52.346;14.516;2023-09-19T04:15:56;431.27;;;201.87;;
8650;SDS011;4363;52.346;14.516;2023-09-19T04:18:22;467.80;;;215.23;;
8650;SDS011;4363;52.346;14.516;2023-09-19T04:20:50;429.57;;;200.43;;
8650;SDS011;4363;52.346;14.516;2023-09-19T04:23:17;447.60;;;207.77;;
8650;SDS011;4363;52.346;14.516;2023-09-19T04:25:44;484.00;;;231.77;;
8650;SDS011;4363;52.346;14.516;2023-09-19T04:28:10;445.60;;;203.77;;
8650;SDS011;4363;52.346;14.516;2023-09-19T04:30:37;444.03;;;204.40;;
8650;SDS011;4363;52.346;14.516;2023-09-19T04:33:05;432.53;;;199.50;;
8650;SDS011;4363;52.346;14.516;2023-09-19T04:35:31;435.90;;;198.63;;
8650;SDS011;4363;52.346;14.516;2023-09-19T04:37:57;454.53;;;209.57;;
8650;SDS011;4363;52.346;14.516;2023-09-19T04:40:23;484.73;;;228.93;;
8650;SDS011;4363;52.346;14.516;2023-09-19T04:42:54;463.60;;;219.10;;
8650;SDS011;4363;52.346;14.516;2023-09-19T04:45:23;452.50;;;214.57;;
8650;SDS011;4363;52.346;14.516;2023-09-19T04:47:49;428.20;;;197.07;;
8650;SDS011;4363;52.346;14.516;2023-09-19T04:50:15;464.33;;;215.07;;
8650;SDS011;4363;52.346;14.516;2023-09-19T04:52:42;425.70;;;197.17;;
8650;SDS011;4363;52.346;14.516;2023-09-19T04:55:09;442.77;;;203.10;;
8650;SDS011;4363;52.346;14.516;2023-09-19T04:57:36;455.23;;;208.13;;
8650;SDS011;4363;52.346;14.516;2023-09-19T05:00:02;440.77;;;203.70;;
8650;SDS011;4363;52.346;14.516;2023-09-19T05:02:37;452.30;;;209.03;;
8650;SDS011;4363;52.346;14.516;2023-09-19T05:05:03;444.57;;;209.80;;
8650;SDS011;4363;52.346;14.516;2023-09-19T05:07:29;430.50;;;200.27;;
8650;SDS011;4363;52.346;14.516;2023-09-19T05:09:56;453.73;;;213.23;;
8650;SDS011;4363;52.346;14.516;2023-09-19T05:12:22;464.70;;;221.33;;
8650;SDS011;4363;52.346;14.516;2023-09-19T05:14:47;455.67;;;212.80;;
8650;SDS011;4363;52.346;14.516;2023-09-19T05:17:13;440.17;;;198.43;;
8650;SDS011;4363;52.346;14.516;2023-09-19T05:19:41;446.43;;;207.10;;
8650;SDS011;4363;52.346;14.516;2023-09-19T05:22:07;443.70;;;203.10;;
8650;SDS011;4363;52.346;14.516;2023-09-19T05:24:33;456.43;;;209.67;;
8650;SDS011;4363;52.346;14.516;2023-09-19T05:26:59;439.60;;;202.43;;
8650;SDS011;4363;52.346;14.516;2023-09-19T05:29:25;473.80;;;226.30;;
8650;SDS011;4363;52.346;14.516;2023-09-19T05:31:51;496.07;;;233.23;;
8650;SDS011;4363;52.346;14.516;2023-09-19T05:34:19;556.13;;;273.57;;
8650;SDS011;4363;52.346;14.516;2023-09-19T05:36:45;456.70;;;210.47;;
8650;SDS011;4363;52.346;14.516;2023-09-19T05:39:13;424.67;;;199.47;;
8650;SDS011;4363;52.346;14.516;2023-09-19T05:41:39;426.17;;;200.60;;
8650;SDS011;4363;52.346;14.516;2023-09-19T05:44:06;434.73;;;203.67;;
8650;SDS011;4363;52.346;14.516;2023-09-19T05:46:32;472.07;;;217.97;;
8650;SDS011;4363;52.346;14.516;2023-09-19T05:48:58;431.47;;;197.13;;
8650;SDS011;4363;52.346;14.516;2023-09-19T05:51:24;459.33;;;210.60;;
8650;SDS011;4363;52.346;14.516;2023-09-19T05:53:53;455.37;;;207.83;;
8650;SDS011;4363;52.346;14.516;2023-09-19T05:56:20;430.33;;;203.83;;
8650;SDS011;4363;52.346;14.516;2023-09-19T05:58:45;431.27;;;197.20;;
8650;SDS011;4363;52.346;14.516;2023-09-19T06:01:11;460.43;;;210.37;;
8650;SDS011;4363;52.346;14.516;2023-09-19T06:03:38;432.70;;;200.57;;
8650;SDS011;4363;52.346;14.516;2023-09-19T06:06:04;456.57;;;212.53;;
8650;SDS011;4363;52.346;14.516;2023-09-19T06:08:31;466.87;;;214.97;;
8650;SDS011;4363;52.346;14.516;2023-09-19T06:10:58;470.70;;;217.97;;
8650;SDS011;4363;52.346;14.516;2023-09-19T06:13:24;508.10;;;244.13;;
8650;SDS011;4363;52.346;14.516;2023-09-19T06:15:51;466.23;;;212.40;;
8650;SDS011;4363;52.346;14.516;2023-09-19T06:18:17;493.87;;;228.70;;
8650;SDS011;4363;52.346;14.516;2023-09-19T06:20:47;453.40;;;204.90;;
8650;SDS011;4363;52.346;14.516;2023-09-19T06:23:13;435.43;;;204.57;;
8650;SDS011;4363;52.346;14.516;2023-09-19T06:25:39;512.57;;;241.73;;
8650;SDS011;4363;52.346;14.516;2023-09-19T06:28:06;594.53;;;303.43;;
8650;SDS011;4363;52.346;14.516;2023-09-19T06:30:33;491.07;;;229.53;;
8650;SDS011;4363;52.346;14.516;2023-09-19T06:33:00;475.20;;;219.37;;
8650;SDS011;4363;52.346;14.516;2023-09-19T06:35:26;461.83;;;217.27;;
8650;SDS011;4363;52.346;14.516;2023-09-19T06:37:52;467.00;;;215.37;;
8650;SDS011;4363;52.346;14.516;2023-09-19T06:40:18;484.70;;;224.17;;
8650;SDS011;4363;52.346;14.516;2023-09-19T06:42:49;455.77;;;208.03;;
8650;SDS011;4363;52.346;14.516;2023-09-19T06:45:16;473.60;;;219.40;;
8650;SDS011;4363;52.346;14.516;2023-09-19T06:47:48;482.07;;;221.77;;
8650;SDS011;4363;52.346;14.516;2023-09-19T06:50:14;451.27;;;208.47;;
8650;SDS011;4363;52.346;14.516;2023-09-19T06:52:43;441.33;;;201.43;;
8650;SDS011;4363;52.346;14.516;2023-09-19T06:55:10;448.87;;;208.37;;
8650;SDS011;4363;52.346;14.516;2023-09-19T06:57:38;460.00;;;211.33;;
8650;SDS011;4363;52.346;14.516;2023-09-19T07:00:05;458.87;;;207.90;;
8650;SDS011;4363;52.346;14.516;2023-09-19T07:02:40;439.97;;;200.27;;
8650;SDS011;4363;52.346;14.516;2023-09-19T07:05:06;468.13;;;214.83;;
8650;SDS011;4363;52.346;14.516;2023-09-19T07:07:32;537.13;;;262.40;;
8650;SDS011;4363;52.346;14.516;2023-09-19T07:10:00;473.03;;;221.93;;
8650;SDS011;4363;52.346;14.516;2023-09-19T07:12:26;483.73;;;222.80;;
8650;SDS011;4363;52.346;14.516;2023-09-19T07:14:51;587.83;;;288.23;;
8650;SDS011;4363;52.346;14.516;2023-09-19T07:17:18;499.70;;;236.50;;
8650;SDS011;4363;52.346;14.516;2023-09-19T07:19:44;461.37;;;211.83;;
8650;SDS011;4363;52.346;14.516;2023-09-19T07:22:10;501.93;;;236.73;;
8650;SDS011;4363;52.346;14.516;2023-09-19T07:24:36;479.43;;;222.50;;
8650;SDS011;4363;52.346;14.516;2023-09-19T07:27:03;477.63;;;220.47;;
8650;SDS011;4363;52.346;14.516;2023-09-19T07:29:30;502.70;;;234.90;;
8650;SDS011;4363;52.346;14.516;2023-09-19T07:31:56;469.43;;;219.67;;
8650;SDS011;4363;52.346;14.516;2023-09-19T07:34:22;480.30;;;225.60;;
8650;SDS011;4363;52.346;14.516;2023-09-19T07:36:48;473.80;;;223.33;;
8650;SDS011;4363;52.346;14.516;2023-09-19T07:39:14;487.43;;;233.33;;
8650;SDS011;4363;52.346;14.516;2023-09-19T07:41:40;470.83;;;221.90;;
8650;SDS011;4363;52.346;14.516;2023-09-19T07:44:06;484.97;;;227.53;;
8650;SDS011;4363;52.346;14.516;2023-09-19T07:46:33;487.53;;;232.47;;
8650;SDS011;4363;52.346;14.516;2023-09-19T07:48:58;488.57;;;236.97;;
8650;SDS011;4363;52.346;14.516;2023-09-19T07:51:25;482.10;;;225.90;;
8650;SDS011;4363;52.346;14.516;2023-09-19T07:53:52;478.10;;;229.00;;
8650;SDS011;4363;52.346;14.516;2023-09-19T07:56:17;478.20;;;228.90;;
8650;SDS011;4363;52.346;14.516;2023-09-19T07:58:45;460.87;;;221.73;;
8650;SDS011;4363;52.346;14.516;2023-09-19T08:01:11;445.60;;;208.20;;
8650;SDS011;4363;52.346;14.516;2023-09-19T08:03:38;470.53;;;229.97;;
8650;SDS011;4363;52.346;14.516;2023-09-19T08:06:08;448.90;;;213.00;;
8650;SDS011;4363;52.346;14.516;2023-09-19T08:08:34;442.07;;;212.97;;
8650;SDS011;4363;52.346;14.516;2023-09-19T08:11:04;456.03;;;219.90;;
8650;SDS011;4363;52.346;14.516;2023-09-19T08:13:40;463.33;;;226.10;;
8650;SDS011;4363;52.346;14.516;2023-09-19T08:16:09;471.80;;;226.97;;
8650;SDS011;4363;52.346;14.516;2023-09-19T08:18:35;601.33;;;317.70;;
8650;SDS011;4363;52.346;14.516;2023-09-19T08:21:02;468.07;;;225.07;;
8650;SDS011;4363;52.346;14.516;2023-09-19T08:23:28;505.40;;;252.10;;
8650;SDS011;4363;52.346;14.516;2023-09-19T08:25:56;495.37;;;242.67;;
8650;SDS011;4363;52.346;14.516;2023-09-19T08:28:23;489.03;;;238.90;;
8650;SDS011;4363;52.346;14.516;2023-09-19T08:30:49;459.63;;;225.77;;
8650;SDS011;4363;52.346;14.516;2023-09-19T08:33:16;461.63;;;217.93;;
8650;SDS011;4363;52.346;14.516;2023-09-19T08:35:42;495.33;;;239.53;;
8650;SDS011;4363;52.346;14.516;2023-09-19T08:38:09;462.93;;;226.97;;
8650;SDS011;4363;52.346;14.516;2023-09-19T08:40:38;567.13;;;287.60;;
8650;SDS011;4363;52.346;14.516;2023-09-19T08:43:06;450.90;;;212.87;;
8650;SDS011;4363;52.346;14.516;2023-09-19T08:45:33;481.83;;;233.03;;
8650;SDS011;4363;52.346;14.516;2023-09-19T08:48:06;459.37;;;221.50;;
8650;SDS011;4363;52.346;14.516;2023-09-19T08:50:43;503.20;;;246.43;;
8650;SDS011;4363;52.346;14.516;2023-09-19T08:53:14;484.93;;;239.47;;
8650;SDS011;4363;52.346;14.516;2023-09-19T08:55:41;570.77;;;301.43;;
8650;SDS011;4363;52.346;14.516;2023-09-19T08:58:10;483.17;;;236.67;;
8650;SDS011;4363;52.346;14.516;2023-09-19T09:00:38;487.97;;;246.90;;
8650;SDS011;4363;52.346;14.516;2023-09-19T09:03:08;477.33;;;240.20;;
8650;SDS011;4363;52.346;14.516;2023-09-19T09:05:34;501.93;;;250.73;;
8650;SDS011;4363;52.346;14.516;2023-09-19T09:08:01;467.87;;;235.33;;
8650;SDS011;4363;52.346;14.516;2023-09-19T09:10:28;512.37;;;260.90;;
8650;SDS011;4363;52.346;14.516;2023-09-19T09:12:54;497.70;;;251.20;;
8650;SDS011;4363;52.346;14.516;2023-09-19T09:15:21;471.30;;;236.27;;
8650;SDS011;4363;52.346;14.516;2023-09-19T09:17:48;457.00;;;235.47;;
8650;SDS011;4363;52.346;14.516;2023-09-19T09:20:15;477.83;;;244.07;;
8650;SDS011;4363;52.346;14.516;2023-09-19T09:22:54;517.77;;;262.93;;
8650;SDS011;4363;52.346;14.516;2023-09-19T09:25:20;479.33;;;245.77;;
8650;SDS011;4363;52.346;14.516;2023-09-19T09:27:59;481.50;;;248.07;;
8650;SDS011;4363;52.346;14.516;2023-09-19T09:30:32;495.97;;;261.90;;
8650;SDS011;4363;52.346;14.516;2023-09-19T09:33:11;465.00;;;236.87;;
8650;SDS011;4363;52.346;14.516;2023-09-19T09:35:46;508.20;;;260.90;;
8650;SDS011;4363;52.346;14.516;2023-09-19T09:38:17;514.13;;;267.83;;
8650;SDS011;4363;52.346;14.516;2023-09-19T09:40:47;524.77;;;270.57;;
8650;SDS011;4363;52.346;14.516;2023-09-19T09:48:57;504.23;;;252.97;;
8650;SDS011;4363;52.346;14.516;2023-09-19T09:51:43;497.73;;;253.53;;
8650;SDS011;4363;52.346;14.516;2023-09-19T09:54:12;492.03;;;250.97;;
8650;SDS011;4363;52.346;14.516;2023-09-19T09:59:23;473.57;;;244.40;;
8650;SDS011;4363;52.346;14.516;2023-09-19T10:02:10;475.73;;;242.40;;
8650;SDS011;4363;52.346;14.516;2023-09-19T10:04:38;535.00;;;297.33;;
8650;SDS011;4363;52.346;14.516;2023-09-19T10:07:26;530.63;;;281.20;;
8650;SDS011;4363;52.346;14.516;2023-09-19T10:09:53;470.63;;;249.23;;
8650;SDS011;4363;52.346;14.516;2023-09-19T10:12:25;496.87;;;258.70;;
8650;SDS011;4363;52.346;14.516;2023-09-19T10:14:53;485.47;;;263.03;;
8650;SDS011;4363;52.346;14.516;2023-09-19T10:17:22;474.90;;;252.67;;
8650;SDS011;4363;52.346;14.516;2023-09-19T10:19:56;478.00;;;258.37;;
8650;SDS011;4363;52.346;14.516;2023-09-19T10:22:44;481.33;;;256.80;;
8650;SDS011;4363;52.346;14.516;2023-09-19T10:25:22;482.93;;;261.97;;
8650;SDS011;4363;52.346;14.516;2023-09-19T10:27:48;481.43;;;266.57;;
8650;SDS011;4363;52.346;14.516;2023-09-19T10:30:15;483.23;;;264.03;;
8650;SDS011;4363;52.346;14.516;2023-09-19T10:32:42;494.13;;;262.97;;
8650;SDS011;4363;52.346;14.516;2023-09-19T10:35:08;472.63;;;259.20;;
8650;SDS011;4363;52.346;14.516;2023-09-19T10:37:34;480.60;;;261.17;;
8650;SDS011;4363;52.346;14.516;2023-09-19T10:40:02;483.13;;;263.63;;
8650;SDS011;4363;52.346;14.516;2023-09-19T10:42:33;472.10;;;254.20;;
8650;SDS011;4363;52.346;14.516;2023-09-19T10:45:01;482.57;;;264.13;;
8650;SDS011;4363;52.346;14.516;2023-09-19T10:47:32;487.53;;;261.00;;
8650;SDS011;4363;52.346;14.516;2023-09-19T10:49:58;466.20;;;242.67;;
8650;SDS011;4363;52.346;14.516;2023-09-19T10:52:24;475.70;;;251.57;;
8650;SDS011;4363;52.346;14.516;2023-09-19T10:54:53;480.40;;;254.47;;
8650;SDS011;4363;52.346;14.516;2023-09-19T10:57:21;474.73;;;259.67;;
8650;SDS011;4363;52.346;14.516;2023-09-19T11:00:05;470.50;;;258.30;;
8650;SDS011;4363;52.346;14.516;2023-09-19T11:08:30;483.10;;;262.17;;
8650;SDS011;4363;52.346;14.516;2023-09-19T11:10:57;449.23;;;240.37;;
8650;SDS011;4363;52.346;14.516;2023-09-19T11:13:28;471.47;;;248.33;;
8650;SDS011;4363;52.346;14.516;2023-09-19T11:21:51;479.73;;;257.77;;
8650;SDS011;4363;52.346;14.516;2023-09-19T11:24:27;468.83;;;255.70;;
8650;SDS011;4363;52.346;14.516;2023-09-19T11:26:50;473.50;;;250.57;;
8650;SDS011;4363;52.346;14.516;2023-09-19T11:29:25;442.70;;;237.93;;
8650;SDS011;4363;52.346;14.516;2023-09-19T11:31:51;505.47;;;271.80;;
8650;SDS011;4363;52.346;14.516;2023-09-19T11:39:37;482.80;;;265.40;;
8650;SDS011;4363;52.346;14.516;2023-09-19T11:44:48;498.87;;;267.37;;
8650;SDS011;4363;52.346;14.516;2023-09-19T11:47:16;464.30;;;256.13;;
8650;SDS011;4363;52.346;14.516;2023-09-19T11:49:44;502.90;;;270.97;;
8650;SDS011;4363;52.346;14.516;2023-09-19T11:52:10;470.30;;;254.87;;
8650;SDS011;4363;52.346;14.516;2023-09-19T11:54:38;494.50;;;266.67;;
8650;SDS011;4363;52.346;14.516;2023-09-19T11:57:06;466.03;;;249.70;;
8650;SDS011;4363;52.346;14.516;2023-09-19T11:59:33;481.53;;;263.90;;
8650;SDS011;4363;52.346;14.516;2023-09-19T12:02:03;519.90;;;287.17;;
8650;SDS011;4363;52.346;14.516;2023-09-19T12:04:36;460.93;;;248.57;;
8650;SDS011;4363;52.346;14.516;2023-09-19T12:07:09;485.77;;;271.17;;
8650;SDS011;4363;52.346;14.516;2023-09-19T12:09:39;526.63;;;289.27;;
8650;SDS011;4363;52.346;14.516;2023-09-19T12:12:08;485.70;;;260.30;;
8650;SDS011;4363;52.346;14.516;2023-09-19T12:14:34;492.87;;;267.70;;
8650;SDS011;4363;52.346;14.516;2023-09-19T12:17:00;482.43;;;268.27;;
8650;SDS011;4363;52.346;14.516;2023-09-19T12:19:28;489.80;;;276.07;;
8650;SDS011;4363;52.346;14.516;2023-09-19T12:21:57;473.40;;;269.00;;
8650;SDS011;4363;52.346;14.516;2023-09-19T12:24:25;481.00;;;270.67;;
8650;SDS011;4363;52.346;14.516;2023-09-19T12:26:52;494.37;;;279.33;;
8650;SDS011;4363;52.346;14.516;2023-09-19T12:29:21;492.03;;;279.77;;
8650;SDS011;4363;52.346;14.516;2023-09-19T12:31:51;501.60;;;281.50;;
8650;SDS011;4363;52.346;14.516;2023-09-19T12:34:25;528.60;;;305.67;;
8650;SDS011;4363;52.346;14.516;2023-09-19T12:37:04;497.13;;;289.50;;
8650;SDS011;4363;52.346;14.516;2023-09-19T12:39:36;483.60;;;284.37;;
8650;SDS011;4363;52.346;14.516;2023-09-19T12:42:02;477.27;;;283.10;;
8650;SDS011;4363;52.346;14.516;2023-09-19T12:44:29;486.27;;;280.30;;
8650;SDS011;4363;52.346;14.516;2023-09-19T12:46:55;507.40;;;296.83;;
8650;SDS011;4363;52.346;14.516;2023-09-19T12:49:24;489.97;;;287.53;;
8650;SDS011;4363;52.346;14.516;2023-09-19T12:51:51;485.93;;;283.90;;
8650;SDS011;4363;52.346;14.516;2023-09-19T12:54:20;479.53;;;283.60;;
8650;SDS011;4363;52.346;14.516;2023-09-19T12:56:47;483.70;;;285.20;;
8650;SDS011;4363;52.346;14.516;2023-09-19T12:59:14;471.70;;;275.57;;
8650;SDS011;4363;52.346;14.516;2023-09-19T13:01:40;499.77;;;294.07;;
8650;SDS011;4363;52.346;14.516;2023-09-19T13:04:15;463.97;;;267.47;;
8650;SDS011;4363;52.346;14.516;2023-09-19T13:06:48;486.37;;;284.10;;
8650;SDS011;4363;52.346;14.516;2023-09-19T13:09:14;474.47;;;279.63;;
8650;SDS011;4363;52.346;14.516;2023-09-19T13:11:41;506.73;;;298.60;;
8650;SDS011;4363;52.346;14.516;2023-09-19T13:17:07;490.17;;;291.80;;
8650;SDS011;4363;52.346;14.516;2023-09-19T13:19:47;486.13;;;290.03;;
8650;SDS011;4363;52.346;14.516;2023-09-19T13:24:58;476.67;;;283.50;;
8650;SDS011;4363;52.346;14.516;2023-09-19T13:27:25;472.97;;;281.27;;
8650;SDS011;4363;52.346;14.516;2023-09-19T13:29:52;462.80;;;277.47;;
8650;SDS011;4363;52.346;14.516;2023-09-19T13:32:18;470.23;;;276.67;;
8650;SDS011;4363;52.346;14.516;2023-09-19T13:34:44;477.03;;;292.90;;
8650;SDS011;4363;52.346;14.516;2023-09-19T13:37:10;475.30;;;283.07;;
8650;SDS011;4363;52.346;14.516;2023-09-19T13:39:38;480.77;;;295.93;;
8650;SDS011;4363;52.346;14.516;2023-09-19T13:42:07;502.50;;;311.17;;
8650;SDS011;4363;52.346;14.516;2023-09-19T13:44:36;475.50;;;297.57;;
8650;SDS011;4363;52.346;14.516;2023-09-19T13:47:03;494.53;;;313.87;;
8650;SDS011;4363;52.346;14.516;2023-09-19T13:49:34;535.33;;;340.83;;
8650;SDS011;4363;52.346;14.516;2023-09-19T13:52:00;483.17;;;306.17;;
8650;SDS011;4363;52.346;14.516;2023-09-19T13:54:28;474.43;;;307.97;;
8650;SDS011;4363;52.346;14.516;2023-09-19T13:56:54;470.63;;;319.53;;
8650;SDS011;4363;52.346;14.516;2023-09-19T13:59:20;476.23;;;326.03;;
8650;SDS011;4363;52.346;14.516;2023-09-19T14:01:49;498.13;;;330.90;;
8650;SDS011;4363;52.346;14.516;2023-09-19T14:04:15;553.27;;;360.43;;
8650;SDS011;4363;52.346;14.516;2023-09-19T14:06:42;503.57;;;331.90;;
8650;SDS011;4363;52.346;14.516;2023-09-19T14:09:08;470.07;;;322.33;;
8650;SDS011;4363;52.346;14.516;2023-09-19T14:11:35;489.13;;;322.60;;
8650;SDS011;4363;52.346;14.516;2023-09-19T14:14:02;480.03;;;319.40;;
8650;SDS011;4363;52.346;14.516;2023-09-19T14:16:29;473.37;;;309.83;;
8650;SDS011;4363;52.346;14.516;2023-09-19T14:18:56;408.73;;;290.10;;
8650;SDS011;4363;52.346;14.516;2023-09-19T14:21:23;385.80;;;276.10;;
8650;SDS011;4363;52.346;14.516;2023-09-19T14:23:48;408.37;;;289.50;;
8650;SDS011;4363;52.346;14.516;2023-09-19T14:26:15;387.27;;;279.30;;
8650;SDS011;4363;52.346;14.516;2023-09-19T14:28:41;393.67;;;267.03;;
8650;SDS011;4363;52.346;14.516;2023-09-19T14:31:08;405.77;;;280.37;;
8650;SDS011;4363;52.346;14.516;2023-09-19T14:33:34;393.63;;;273.47;;
8650;SDS011;4363;52.346;14.516;2023-09-19T14:36:07;381.67;;;268.03;;
8650;SDS011;4363;52.346;14.516;2023-09-19T14:38:34;394.47;;;271.33;;
8650;SDS011;4363;52.346;14.516;2023-09-19T14:41:03;379.13;;;257.93;;
8650;SDS011;4363;52.346;14.516;2023-09-19T14:43:30;391.93;;;268.27;;
8650;SDS011;4363;52.346;14.516;2023-09-19T14:45:57;401.00;;;266.40;;
8650;SDS011;4363;52.346;14.516;2023-09-19T14:48:23;388.50;;;270.07;;
8650;SDS011;4363;52.346;14.516;2023-09-19T14:50:50;382.97;;;261.47;;
8650;SDS011;4363;52.346;14.516;2023-09-19T14:53:16;394.03;;;266.80;;
8650;SDS011;4363;52.346;14.516;2023-09-19T14:55:42;423.27;;;283.67;;
8650;SDS011;4363;52.346;14.516;2023-09-19T14:58:10;393.07;;;269.37;;
8650;SDS011;4363;52.346;14.516;2023-09-19T15:00:37;401.03;;;276.53;;
8650;SDS011;4363;52.346;14.516;2023-09-19T15:03:03;380.83;;;262.73;;